Time;durP1;ratioP1;P1;durP2;ratioP2;P2;SDS_P1;SDS_P2;PMS_P1;PMS_P2;Temp;Humidity;BMP_temperature;BMP_pressure;BME280_temperature;BME280_humidity;BME280_pressure;Samples;Min_cycle;Max_cycle;Signal;HPM_P1;HPM_P2
2022/03/26 00:00:42;;;;;;;21.38;9.15;;;;;;;;;;5070897;27;20042;-78
2022/03/26 00:03:08;;;;;;;19.67;8.55;;;;;;;;;;5073839;27;20039;-78
2022/03/26 00:05:34;;;;;;;23.00;9.43;;;;;;;;;;5093965;27;20091;-78
2022/03/26 00:08:00;;;;;;;20.42;8.93;;;;;;;;;;5089329;27;20045;-78
2022/03/26 00:10:26;;;;;;;17.20;8.52;;;;;;;;;;5072352;28;20485;-78
2022/03/26 00:12:52;;;;;;;21.35;8.13;;;;;;;;;;5092741;27;20522;-78
2022/03/26 00:15:19;;;;;;;20.35;8.52;;;;;;;;;;5086912;27;20100;-78
2022/03/26 00:17:45;;;;;;;21.45;9.98;;;;;;;;;;5088690;27;20589;-78
2022/03/26 00:20:12;;;;;;;17.02;8.45;;;;;;;;;;5072521;27;20139;-78
2022/03/26 00:22:40;;;;;;;18.02;8.20;;;;;;;;;;5094937;27;20044;-78
2022/03/26 00:25:07;;;;;;;18.58;7.90;;;;;;;;;;5071939;28;20127;-78
2022/03/26 00:27:34;;;;;;;17.42;9.80;;;;;;;;;;5074738;27;20050;-78
2022/03/26 00:30:02;;;;;;;17.90;9.02;;;;;;;;;;5072880;27;20040;-78
2022/03/26 00:32:28;;;;;;;20.92;8.63;;;;;;;;;;5091223;27;20117;-78
2022/03/26 00:34:54;;;;;;;25.17;8.95;;;;;;;;;;5075032;27;20953;-78
2022/03/26 00:37:20;;;;;;;17.52;8.63;;;;;;;;;;5093524;27;20043;-78
2022/03/26 00:39:46;;;;;;;18.58;9.75;;;;;;;;;;5091338;27;20047;-78
2022/03/26 00:42:12;;;;;;;25.40;10.98;;;;;;;;;;5095648;27;20485;-78
2022/03/26 00:44:39;;;;;;;27.63;10.13;;;;;;;;;;5075424;27;20095;-78
2022/03/26 00:47:06;;;;;;;18.98;7.97;;;;;;;;;;5081281;28;20573;-78
2022/03/26 00:49:32;;;;;;;20.50;8.38;;;;;;;;;;5076794;28;20080;-78
2022/03/26 00:51:58;;;;;;;19.27;8.73;;;;;;;;;;5073136;28;20075;-78
2022/03/26 00:54:25;;;;;;;17.77;8.35;;;;;;;;;;5092801;27;20158;-77
2022/03/26 00:56:51;;;;;;;18.70;7.88;;;;;;;;;;5076258;27;20518;-77
2022/03/26 00:59:17;;;;;;;17.38;7.97;;;;;;;;;;5077362;27;20040;-78
2022/03/26 01:01:43;;;;;;;22.13;9.55;;;;;;;;;;5073787;27;20079;-78
2022/03/26 01:04:09;;;;;;;21.83;9.90;;;;;;;;;;5091107;27;20067;-78
2022/03/26 01:06:35;;;;;;;18.98;8.77;;;;;;;;;;5093142;27;20553;-78
2022/03/26 01:09:02;;;;;;;20.17;9.00;;;;;;;;;;5072887;28;21123;-77
2022/03/26 01:11:28;;;;;;;16.23;8.50;;;;;;;;;;5092700;27;20040;-78
2022/03/26 01:13:56;;;;;;;18.15;8.32;;;;;;;;;;5068583;28;20040;-77
2022/03/26 01:16:23;;;;;;;14.32;8.35;;;;;;;;;;5088398;27;20522;-77
2022/03/26 01:18:49;;;;;;;20.60;9.20;;;;;;;;;;5072964;27;20120;-77
2022/03/26 01:21:15;;;;;;;19.63;8.70;;;;;;;;;;5070502;28;20074;-77
2022/03/26 01:23:43;;;;;;;19.10;10.07;;;;;;;;;;5088717;27;20620;-77
2022/03/26 01:26:09;;;;;;;21.88;9.45;;;;;;;;;;5089147;27;20028;-78
2022/03/26 01:28:35;;;;;;;21.67;8.93;;;;;;;;;;5074658;27;20513;-77
2022/03/26 01:31:02;;;;;;;20.88;9.57;;;;;;;;;;5089592;27;20047;-77
2022/03/26 01:33:28;;;;;;;18.17;8.45;;;;;;;;;;5073801;28;20040;-78
2022/03/26 01:35:54;;;;;;;21.40;8.55;;;;;;;;;;5089194;27;20028;-77
2022/03/26 01:38:20;;;;;;;23.92;8.65;;;;;;;;;;5074318;27;20509;-78
2022/03/26 01:40:47;;;;;;;23.27;8.82;;;;;;;;;;5075253;27;20052;-77
2022/03/26 01:43:13;;;;;;;22.00;8.88;;;;;;;;;;5069537;27;20454;-77
2022/03/26 01:45:39;;;;;;;24.02;11.15;;;;;;;;;;5069248;27;20058;-78
2022/03/26 01:48:08;;;;;;;19.95;9.55;;;;;;;;;;5088533;27;20040;-77
2022/03/26 01:50:34;;;;;;;15.65;9.00;;;;;;;;;;5074695;27;20048;-77
2022/03/26 01:53:01;;;;;;;23.70;10.55;;;;;;;;;;5093746;27;20032;-78
2022/03/26 01:55:28;;;;;;;23.40;9.55;;;;;;;;;;5088463;27;20079;-77
2022/03/26 01:57:55;;;;;;;20.75;7.85;;;;;;;;;;5072244;27;20425;-78
2022/03/26 02:00:21;;;;;;;18.98;8.23;;;;;;;;;;5092693;27;20907;-77
2022/03/26 02:02:47;;;;;;;19.80;8.95;;;;;;;;;;5092103;27;20045;-78
2022/03/26 02:05:15;;;;;;;18.50;9.25;;;;;;;;;;5097722;27;20618;-77
2022/03/26 02:07:43;;;;;;;22.80;9.02;;;;;;;;;;5078033;27;20044;-77
2022/03/26 02:10:13;;;;;;;24.25;9.07;;;;;;;;;;5076431;27;20041;-77
2022/03/26 02:12:42;;;;;;;19.45;9.77;;;;;;;;;;5075171;27;20101;-77
2022/03/26 02:15:09;;;;;;;18.83;9.55;;;;;;;;;;5077141;27;20904;-78
2022/03/26 02:17:36;;;;;;;22.85;9.57;;;;;;;;;;5076736;27;20036;-77
2022/03/26 02:20:04;;;;;;;28.80;9.93;;;;;;;;;;5095849;27;20509;-77
2022/03/26 02:22:31;;;;;;;23.65;9.40;;;;;;;;;;5095973;27;20040;-77
2022/03/26 02:24:57;;;;;;;21.00;9.98;;;;;;;;;;5076638;27;21393;-77
2022/03/26 02:27:24;;;;;;;19.95;9.35;;;;;;;;;;5095517;27;20040;-77
2022/03/26 02:29:50;;;;;;;18.45;8.63;;;;;;;;;;5076202;27;20048;-77
2022/03/26 02:32:19;;;;;;;19.10;10.40;;;;;;;;;;5069102;28;20040;-77
2022/03/26 02:34:45;;;;;;;20.40;9.75;;;;;;;;;;5067235;27;20162;-77
2022/03/26 02:37:11;;;;;;;22.83;12.02;;;;;;;;;;5078079;28;20047;-77
2022/03/26 02:39:37;;;;;;;23.98;8.60;;;;;;;;;;5076962;28;20558;-77
2022/03/26 02:42:04;;;;;;;22.02;9.57;;;;;;;;;;5092642;27;20045;-77
2022/03/26 02:44:30;;;;;;;29.45;11.05;;;;;;;;;;5077981;28;20036;-78
2022/03/26 02:46:56;;;;;;;25.88;9.93;;;;;;;;;;5074505;28;20048;-78
2022/03/26 02:49:22;;;;;;;21.15;8.73;;;;;;;;;;5095661;27;20159;-77
2022/03/26 02:51:48;;;;;;;24.20;11.10;;;;;;;;;;5095249;27;20603;-77
2022/03/26 02:54:20;;;;;;;22.52;9.20;;;;;;;;;;5093339;27;20036;-77
2022/03/26 02:56:50;;;;;;;21.95;9.80;;;;;;;;;;5074649;28;20052;-77
2022/03/26 02:59:17;;;;;;;24.58;9.80;;;;;;;;;;5087644;27;20052;-77
2022/03/26 03:01:43;;;;;;;26.42;10.80;;;;;;;;;;5078824;28;20067;-77
2022/03/26 03:04:09;;;;;;;19.70;9.93;;;;;;;;;;5078942;28;20060;-77
2022/03/26 03:06:36;;;;;;;24.58;9.77;;;;;;;;;;5077031;28;20043;-77
2022/03/26 03:09:06;;;;;;;20.80;9.63;;;;;;;;;;5089017;27;20044;-77
2022/03/26 03:11:32;;;;;;;20.90;10.77;;;;;;;;;;5091167;27;20040;-78
2022/03/26 03:13:58;;;;;;;24.40;10.10;;;;;;;;;;5089550;27;20055;-77
2022/03/26 03:16:24;;;;;;;23.25;10.18;;;;;;;;;;5091842;27;20045;-77
2022/03/26 03:18:51;;;;;;;24.75;10.63;;;;;;;;;;5093999;27;20066;-77
2022/03/26 03:21:17;;;;;;;21.27;9.88;;;;;;;;;;5076096;28;20063;-77
2022/03/26 03:23:43;;;;;;;22.25;9.38;;;;;;;;;;5090885;27;20072;-77
2022/03/26 03:26:10;;;;;;;24.20;9.75;;;;;;;;;;5086317;27;20079;-77
2022/03/26 03:28:38;;;;;;;24.90;11.70;;;;;;;;;;5076458;28;20048;-77
2022/03/26 03:31:04;;;;;;;22.33;11.45;;;;;;;;;;5079348;27;20035;-77
2022/03/26 03:33:30;;;;;;;21.67;9.98;;;;;;;;;;5071463;28;20546;-77
2022/03/26 03:35:56;;;;;;;20.48;10.18;;;;;;;;;;5089829;27;20047;-78
2022/03/26 03:38:22;;;;;;;28.33;10.02;;;;;;;;;;5091833;27;20044;-78
2022/03/26 03:40:48;;;;;;;19.67;8.75;;;;;;;;;;5095558;27;20106;-77
2022/03/26 03:43:14;;;;;;;19.15;10.70;;;;;;;;;;5092072;27;21399;-78
2022/03/26 03:45:41;;;;;;;20.50;9.25;;;;;;;;;;5092056;27;20175;-77
2022/03/26 03:48:07;;;;;;;21.92;9.88;;;;;;;;;;5094948;27;20051;-77
2022/03/26 03:50:33;;;;;;;22.88;10.20;;;;;;;;;;5074779;27;20044;-77
2022/03/26 03:52:59;;;;;;;22.50;10.95;;;;;;;;;;5080869;27;20059;-77
2022/03/26 03:55:25;;;;;;;23.90;9.05;;;;;;;;;;5080978;27;20036;-77
2022/03/26 03:57:51;;;;;;;22.42;7.93;;;;;;;;;;5096630;27;20036;-77
2022/03/26 04:00:17;;;;;;;22.23;10.30;;;;;;;;;;5090802;27;20889;-77
2022/03/26 04:02:44;;;;;;;21.85;11.13;;;;;;;;;;5071087;27;20102;-77
2022/03/26 04:05:10;;;;;;;23.13;9.60;;;;;;;;;;5073335;28;20052;-78
2022/03/26 04:07:37;;;;;;;21.80;10.60;;;;;;;;;;5075133;28;20051;-78
2022/03/26 04:10:04;;;;;;;24.48;9.60;;;;;;;;;;5074322;28;20602;-78
2022/03/26 04:12:31;;;;;;;22.08;10.65;;;;;;;;;;5071770;28;20029;-77
2022/03/26 04:14:57;;;;;;;24.95;10.77;;;;;;;;;;5071977;28;21208;-77
2022/03/26 04:17:23;;;;;;;16.33;8.98;;;;;;;;;;5084154;27;20163;-77
2022/03/26 04:19:49;;;;;;;23.55;10.40;;;;;;;;;;5078999;27;20044;-76
2022/03/26 04:22:15;;;;;;;25.60;11.73;;;;;;;;;;5094120;27;20048;-76
2022/03/26 04:24:41;;;;;;;19.65;9.00;;;;;;;;;;5077217;28;20055;-76
2022/03/26 04:27:07;;;;;;;26.88;11.48;;;;;;;;;;5071389;28;20040;-76
2022/03/26 04:29:33;;;;;;;21.88;9.50;;;;;;;;;;5097642;27;20102;-77
2022/03/26 04:31:59;;;;;;;27.23;12.38;;;;;;;;;;5094179;27;20040;-76
2022/03/26 04:34:26;;;;;;;27.40;11.05;;;;;;;;;;5075180;28;20839;-76
2022/03/26 04:36:52;;;;;;;26.20;11.63;;;;;;;;;;5096662;27;20044;-76
2022/03/26 04:39:18;;;;;;;26.83;10.60;;;;;;;;;;5078631;28;20662;-77
2022/03/26 04:41:44;;;;;;;20.83;9.05;;;;;;;;;;5076940;27;20039;-77
2022/03/26 04:44:10;;;;;;;22.80;9.80;;;;;;;;;;5083445;27;20036;-77
2022/03/26 04:46:38;;;;;;;25.77;11.13;;;;;;;;;;5092471;27;20075;-77
2022/03/26 04:49:04;;;;;;;26.58;10.82;;;;;;;;;;5068576;28;21054;-77
2022/03/26 04:51:30;;;;;;;24.42;10.18;;;;;;;;;;5090482;27;20037;-76
2022/03/26 04:53:56;;;;;;;23.77;11.20;;;;;;;;;;5076660;28;20114;-77
2022/03/26 04:56:22;;;;;;;26.40;10.38;;;;;;;;;;5070997;27;20559;-77
2022/03/26 04:58:48;;;;;;;30.02;12.55;;;;;;;;;;5091943;27;20044;-76
2022/03/26 05:01:15;;;;;;;32.42;12.40;;;;;;;;;;5071369;27;20032;-76
2022/03/26 05:03:41;;;;;;;22.48;10.95;;;;;;;;;;5089834;27;20040;-77
2022/03/26 05:06:07;;;;;;;27.58;12.27;;;;;;;;;;5086335;27;20117;-76
2022/03/26 05:08:33;;;;;;;27.17;12.10;;;;;;;;;;5071982;27;20040;-76
2022/03/26 05:11:00;;;;;;;23.90;11.02;;;;;;;;;;5067189;27;20924;-76
2022/03/26 05:13:26;;;;;;;25.10;12.68;;;;;;;;;;5089489;27;20055;-76
2022/03/26 05:15:52;;;;;;;24.98;10.95;;;;;;;;;;5071695;27;20048;-76
2022/03/26 05:18:18;;;;;;;28.67;12.80;;;;;;;;;;5089914;27;20074;-76
2022/03/26 05:20:45;;;;;;;23.48;12.00;;;;;;;;;;5076007;27;20048;-76
2022/03/26 05:23:11;;;;;;;27.25;11.73;;;;;;;;;;5073221;27;20049;-76
2022/03/26 05:25:37;;;;;;;29.38;12.55;;;;;;;;;;5068285;28;20051;-76
2022/03/26 05:28:03;;;;;;;32.45;12.27;;;;;;;;;;5075690;28;20052;-76
2022/03/26 05:30:29;;;;;;;24.40;10.68;;;;;;;;;;5072732;27;20032;-77
2022/03/26 05:32:55;;;;;;;25.80;10.23;;;;;;;;;;5088183;27;20047;-76
2022/03/26 05:35:22;;;;;;;19.63;10.98;;;;;;;;;;5094200;27;20154;-77
2022/03/26 05:37:49;;;;;;;28.95;11.05;;;;;;;;;;5070606;27;20176;-76
2022/03/26 05:40:17;;;;;;;25.60;11.65;;;;;;;;;;5076180;28;20037;-75
2022/03/26 05:42:44;;;;;;;26.95;11.60;;;;;;;;;;5072902;28;20051;-76
2022/03/26 05:45:11;;;;;;;27.00;11.30;;;;;;;;;;5087484;27;20044;-76
2022/03/26 05:47:37;;;;;;;29.30;13.07;;;;;;;;;;5094861;27;20079;-77
2022/03/26 05:50:05;;;;;;;23.70;9.85;;;;;;;;;;5085475;27;20041;-77
2022/03/26 05:52:31;;;;;;;25.58;11.48;;;;;;;;;;5071977;28;20118;-77
2022/03/26 05:54:57;;;;;;;37.10;12.35;;;;;;;;;;5090248;27;20040;-77
2022/03/26 05:57:23;;;;;;;23.73;10.80;;;;;;;;;;5087851;27;20036;-76
2022/03/26 05:59:49;;;;;;;25.50;13.52;;;;;;;;;;5072224;27;20091;-77
2022/03/26 06:02:15;;;;;;;32.08;12.50;;;;;;;;;;5075288;28;20035;-77
2022/03/26 06:04:42;;;;;;;30.85;12.38;;;;;;;;;;5066646;28;20086;-76
2022/03/26 06:07:08;;;;;;;28.17;11.35;;;;;;;;;;5078390;27;20078;-76
2022/03/26 06:09:35;;;;;;;22.42;11.07;;;;;;;;;;5072221;27;20040;-77
2022/03/26 06:12:01;;;;;;;34.10;12.82;;;;;;;;;;5092713;27;20882;-77
2022/03/26 06:14:27;;;;;;;31.02;12.65;;;;;;;;;;5068086;27;20070;-77
2022/03/26 06:16:53;;;;;;;31.25;14.05;;;;;;;;;;5091953;27;20556;-78
2022/03/26 06:19:19;;;;;;;32.60;12.45;;;;;;;;;;5090829;27;20043;-77
2022/03/26 06:21:45;;;;;;;25.00;12.68;;;;;;;;;;5072151;27;20050;-77
2022/03/26 06:24:12;;;;;;;26.33;11.63;;;;;;;;;;5067784;27;20052;-77
2022/03/26 06:26:39;;;;;;;26.90;11.13;;;;;;;;;;5092494;27;20047;-77
2022/03/26 06:29:05;;;;;;;27.67;13.35;;;;;;;;;;5090092;27;20044;-77
2022/03/26 06:31:32;;;;;;;27.38;13.48;;;;;;;;;;5090621;27;20036;-77
2022/03/26 06:33:58;;;;;;;26.88;12.27;;;;;;;;;;5088051;27;20656;-76
2022/03/26 06:36:26;;;;;;;35.00;13.25;;;;;;;;;;5071252;27;20087;-77
2022/03/26 06:38:52;;;;;;;26.65;12.73;;;;;;;;;;5069827;28;20072;-77
2022/03/26 06:41:18;;;;;;;28.48;14.25;;;;;;;;;;5074151;27;20033;-77
2022/03/26 06:43:45;;;;;;;26.60;12.90;;;;;;;;;;5080872;27;20124;-77
2022/03/26 06:46:11;;;;;;;28.50;11.15;;;;;;;;;;5071486;27;21515;-78
2022/03/26 06:48:38;;;;;;;32.60;13.73;;;;;;;;;;5074338;27;20072;-77
2022/03/26 06:51:04;;;;;;;34.20;14.05;;;;;;;;;;5072301;28;20051;-77
2022/03/26 06:53:31;;;;;;;27.65;11.55;;;;;;;;;;5094786;27;20040;-77
2022/03/26 06:55:57;;;;;;;25.85;12.55;;;;;;;;;;5077037;28;20036;-77
2022/03/26 06:58:27;;;;;;;32.53;13.93;;;;;;;;;;5074396;28;20611;-77
2022/03/26 07:00:53;;;;;;;30.13;12.57;;;;;;;;;;5091023;27;20075;-77
2022/03/26 07:03:19;;;;;;;33.58;13.60;;;;;;;;;;5066330;28;20036;-77
2022/03/26 07:05:46;;;;;;;32.88;14.00;;;;;;;;;;5073152;28;20098;-77
2022/03/26 07:08:12;;;;;;;33.38;15.32;;;;;;;;;;5076936;28;20083;-77
2022/03/26 07:10:45;;;;;;;33.42;14.40;;;;;;;;;;5092817;27;20045;-77
2022/03/26 07:13:11;;;;;;;35.50;13.55;;;;;;;;;;5073193;28;20072;-77
2022/03/26 07:15:37;;;;;;;27.88;10.40;;;;;;;;;;5091658;27;20040;-77
2022/03/26 07:18:03;;;;;;;33.58;15.27;;;;;;;;;;5076042;28;20388;-79
2022/03/26 07:20:29;;;;;;;30.95;13.00;;;;;;;;;;5071065;28;20032;-82
2022/03/26 07:22:55;;;;;;;28.48;12.95;;;;;;;;;;5070838;28;20084;-76
2022/03/26 07:25:21;;;;;;;30.75;14.73;;;;;;;;;;5071979;28;20515;-76
2022/03/26 07:27:48;;;;;;;32.00;14.68;;;;;;;;;;5078314;27;20066;-78
2022/03/26 07:30:14;;;;;;;31.38;13.88;;;;;;;;;;5076619;28;20047;-76
2022/03/26 07:32:40;;;;;;;32.55;14.85;;;;;;;;;;5097085;27;20138;-76
2022/03/26 07:35:06;;;;;;;28.15;13.55;;;;;;;;;;5077295;28;20498;-74
2022/03/26 07:37:32;;;;;;;30.95;13.50;;;;;;;;;;5072818;28;20067;-78
2022/03/26 07:40:00;;;;;;;30.70;12.27;;;;;;;;;;5095124;27;20159;-76
2022/03/26 07:42:26;;;;;;;31.38;13.90;;;;;;;;;;5075826;27;20036;-76
2022/03/26 07:44:52;;;;;;;31.70;13.50;;;;;;;;;;5097298;27;20928;-76
2022/03/26 07:47:18;;;;;;;34.35;15.48;;;;;;;;;;5076539;27;20129;-76
2022/03/26 07:49:44;;;;;;;28.52;13.27;;;;;;;;;;5077693;27;20060;-76
2022/03/26 07:52:10;;;;;;;33.00;14.27;;;;;;;;;;5090253;27;20458;-75
2022/03/26 07:54:36;;;;;;;25.40;12.48;;;;;;;;;;5073411;28;20127;-77
2022/03/26 07:57:03;;;;;;;30.83;14.18;;;;;;;;;;5075925;27;20040;-76
2022/03/26 07:59:29;;;;;;;29.13;13.65;;;;;;;;;;5087490;27;20131;-76
2022/03/26 08:01:55;;;;;;;31.70;14.52;;;;;;;;;;5092198;27;20068;-76
2022/03/26 08:04:21;;;;;;;28.88;13.88;;;;;;;;;;5092476;27;20036;-78
2022/03/26 08:06:48;;;;;;;29.38;12.68;;;;;;;;;;5076468;28;20040;-78
2022/03/26 08:09:14;;;;;;;29.20;12.82;;;;;;;;;;5071520;27;21032;-79
2022/03/26 08:11:40;;;;;;;34.75;14.73;;;;;;;;;;5074899;27;20098;-78
2022/03/26 08:14:06;;;;;;;28.25;15.27;;;;;;;;;;5072740;28;20055;-78
2022/03/26 08:16:32;;;;;;;28.48;13.75;;;;;;;;;;5073408;28;20085;-78
2022/03/26 08:18:58;;;;;;;35.47;14.23;;;;;;;;;;5089135;27;20044;-79
2022/03/26 08:21:24;;;;;;;26.25;14.00;;;;;;;;;;5071668;28;20056;-78
2022/03/26 08:23:51;;;;;;;35.15;13.52;;;;;;;;;;5078476;28;21427;-78
2022/03/26 08:26:20;;;;;;;33.28;13.20;;;;;;;;;;5076626;28;20048;-79
2022/03/26 08:28:46;;;;;;;32.38;15.00;;;;;;;;;;5070218;28;20159;-78
2022/03/26 08:31:13;;;;;;;32.55;13.13;;;;;;;;;;5075824;28;20052;-80
2022/03/26 08:33:41;;;;;;;33.80;13.00;;;;;;;;;;5078424;28;20526;-78
2022/03/26 08:36:07;;;;;;;24.70;12.30;;;;;;;;;;5088350;27;20052;-81
2022/03/26 08:38:34;;;;;;;30.67;13.88;;;;;;;;;;5073608;27;20044;-79
2022/03/26 08:41:00;;;;;;;32.00;14.98;;;;;;;;;;5070345;28;20132;-79
2022/03/26 08:43:26;;;;;;;28.17;12.93;;;;;;;;;;5076401;28;20068;-78
2022/03/26 08:45:52;;;;;;;31.88;13.70;;;;;;;;;;5082885;28;20040;-78
2022/03/26 08:48:18;;;;;;;31.25;14.52;;;;;;;;;;5093424;27;20032;-78
2022/03/26 08:50:44;;;;;;;36.42;16.73;;;;;;;;;;5083328;27;20032;-78
2022/03/26 08:53:11;;;;;;;31.50;13.32;;;;;;;;;;5096504;27;20116;-79
2022/03/26 08:55:37;;;;;;;28.15;12.63;;;;;;;;;;5075704;28;20150;-78
2022/03/26 08:58:03;;;;;;;33.25;15.55;;;;;;;;;;5077839;28;20068;-79
2022/03/26 09:00:29;;;;;;;23.00;12.27;;;;;;;;;;5095847;27;20097;-78
2022/03/26 09:02:56;;;;;;;29.35;12.18;;;;;;;;;;5078352;27;20044;-78
2022/03/26 09:05:22;;;;;;;34.22;13.77;;;;;;;;;;5079359;28;20055;-79
2022/03/26 09:07:48;;;;;;;26.05;11.93;;;;;;;;;;5093877;27;20099;-79
2022/03/26 09:10:15;;;;;;;31.77;15.23;;;;;;;;;;5078309;27;20531;-78
2022/03/26 09:12:41;;;;;;;36.13;13.73;;;;;;;;;;5077249;27;20064;-78
2022/03/26 09:15:08;;;;;;;29.25;13.38;;;;;;;;;;5075659;27;20104;-81
2022/03/26 09:17:37;;;;;;;27.42;11.68;;;;;;;;;;5077982;27;20032;-79
2022/03/26 09:20:06;;;;;;;29.98;14.00;;;;;;;;;;5075845;27;20197;-79
2022/03/26 09:22:33;;;;;;;31.85;14.57;;;;;;;;;;5079578;27;20040;-79
2022/03/26 09:24:59;;;;;;;24.45;12.57;;;;;;;;;;5093246;27;20036;-79
2022/03/26 09:27:27;;;;;;;35.60;16.63;;;;;;;;;;5079908;27;20100;-77
2022/03/26 09:29:54;;;;;;;30.17;13.25;;;;;;;;;;5091387;27;20044;-80
2022/03/26 09:32:22;;;;;;;31.90;15.82;;;;;;;;;;5080775;27;20071;-79
2022/03/26 09:34:48;;;;;;;36.72;14.82;;;;;;;;;;5073190;27;20041;-78
2022/03/26 09:37:14;;;;;;;31.23;14.52;;;;;;;;;;5076790;28;20142;-79
2022/03/26 09:39:41;;;;;;;30.02;12.90;;;;;;;;;;5095004;27;20040;-79
2022/03/26 09:42:09;;;;;;;29.52;13.00;;;;;;;;;;5078248;27;20098;-79
2022/03/26 09:44:35;;;;;;;28.58;13.93;;;;;;;;;;5095190;27;20056;-77
2022/03/26 09:47:03;;;;;;;29.83;13.95;;;;;;;;;;5073369;28;20063;-78
2022/03/26 09:49:29;;;;;;;33.83;13.45;;;;;;;;;;5073295;27;20036;-77
2022/03/26 09:51:56;;;;;;;22.45;10.90;;;;;;;;;;5091718;27;20044;-77
2022/03/26 09:54:22;;;;;;;28.27;12.65;;;;;;;;;;5087898;27;20040;-76
2022/03/26 09:56:48;;;;;;;33.28;12.93;;;;;;;;;;5089707;27;20076;-76
2022/03/26 09:59:15;;;;;;;31.52;15.32;;;;;;;;;;5092789;27;20051;-76
2022/03/26 10:01:41;;;;;;;30.20;12.55;;;;;;;;;;5088168;27;20107;-77
2022/03/26 10:04:07;;;;;;;31.92;14.70;;;;;;;;;;5085317;27;20047;-77
2022/03/26 10:06:33;;;;;;;29.55;12.95;;;;;;;;;;5071590;28;20036;-77
2022/03/26 10:08:59;;;;;;;33.53;14.07;;;;;;;;;;5085482;27;20099;-76
2022/03/26 10:11:25;;;;;;;34.70;13.80;;;;;;;;;;5085546;27;20493;-76
2022/03/26 10:13:52;;;;;;;29.67;12.55;;;;;;;;;;5093663;27;20043;-76
2022/03/26 10:16:19;;;;;;;29.73;13.77;;;;;;;;;;5074869;27;20040;-78
2022/03/26 10:18:48;;;;;;;27.88;13.43;;;;;;;;;;5064647;28;20355;-77
2022/03/26 10:21:15;;;;;;;33.15;13.88;;;;;;;;;;5065951;28;20044;-77
2022/03/26 10:23:45;;;;;;;29.15;12.95;;;;;;;;;;5068988;27;20044;-77
2022/03/26 10:26:12;;;;;;;28.95;15.55;;;;;;;;;;5073414;28;20511;-77
2022/03/26 10:28:40;;;;;;;29.20;13.15;;;;;;;;;;5071652;28;20040;-76
2022/03/26 10:34:15;;;;;;;22.85;11.05;;;;;;;;;;5074423;28;21003;-77
2022/03/26 10:36:43;;;;;;;34.83;15.10;;;;;;;;;;5079539;28;20036;-77
2022/03/26 10:39:22;;;;;;;28.48;14.05;;;;;;;;;;5072817;28;20060;-77
2022/03/26 10:41:49;;;;;;;27.35;13.30;;;;;;;;;;5070684;28;20040;-77
2022/03/26 10:44:16;;;;;;;26.50;13.50;;;;;;;;;;5078672;28;20122;-77
2022/03/26 10:46:44;;;;;;;29.88;12.90;;;;;;;;;;5078100;28;20037;-76
2022/03/26 10:49:10;;;;;;;32.20;15.23;;;;;;;;;;5068002;28;20530;-77
2022/03/26 10:51:36;;;;;;;26.90;14.07;;;;;;;;;;5075647;28;20032;-76
2022/03/26 10:54:08;;;;;;;26.35;11.77;;;;;;;;;;5080492;28;20120;-78
2022/03/26 10:56:34;;;;;;;30.75;12.63;;;;;;;;;;5075898;28;20041;-77
2022/03/26 10:59:02;;;;;;;24.77;12.65;;;;;;;;;;5077322;28;20121;-77
2022/03/26 11:01:28;;;;;;;26.40;13.18;;;;;;;;;;5064306;28;20052;-77
2022/03/26 11:03:54;;;;;;;28.95;14.18;;;;;;;;;;5076230;28;20036;-77
2022/03/26 11:06:24;;;;;;;25.67;12.80;;;;;;;;;;5068628;28;20933;-77
2022/03/26 11:08:51;;;;;;;28.58;13.68;;;;;;;;;;5070048;28;20048;-77
2022/03/26 11:11:18;;;;;;;25.55;13.27;;;;;;;;;;5071286;28;20122;-77
2022/03/26 11:13:51;;;;;;;30.67;14.20;;;;;;;;;;5077207;28;20127;-77
2022/03/26 11:16:21;;;;;;;34.03;13.30;;;;;;;;;;5072498;28;20049;-77
2022/03/26 11:18:47;;;;;;;30.10;13.15;;;;;;;;;;5072893;28;20567;-77
2022/03/26 11:21:25;;;;;;;29.25;12.75;;;;;;;;;;5069420;28;20037;-77
2022/03/26 11:23:52;;;;;;;25.67;14.52;;;;;;;;;;5070446;28;20056;-77
2022/03/26 11:26:24;;;;;;;27.65;14.55;;;;;;;;;;5073478;28;20385;-77
2022/03/26 11:28:58;;;;;;;25.35;13.20;;;;;;;;;;5071945;28;20041;-77
2022/03/26 11:31:42;;;;;;;25.08;13.98;;;;;;;;;;5064313;28;20605;-77
2022/03/26 11:34:10;;;;;;;28.52;13.13;;;;;;;;;;5076261;28;20123;-77
2022/03/26 11:36:36;;;;;;;24.95;12.98;;;;;;;;;;5074544;28;20033;-77
2022/03/26 11:39:15;;;;;;;29.48;12.30;;;;;;;;;;5072287;28;20140;-77
2022/03/26 11:41:41;;;;;;;30.73;15.43;;;;;;;;;;5070186;28;20119;-77
2022/03/26 11:44:08;;;;;;;32.97;14.85;;;;;;;;;;5072516;28;20587;-78
2022/03/26 11:52:22;;;;;;;26.15;12.82;;;;;;;;;;5070839;28;20049;-76
2022/03/26 11:54:55;;;;;;;28.65;14.45;;;;;;;;;;5075089;28;20040;-77
2022/03/26 11:57:22;;;;;;;28.42;13.20;;;;;;;;;;5071887;28;20126;-77
2022/03/26 11:59:54;;;;;;;31.48;14.07;;;;;;;;;;5069264;28;20513;-82
2022/03/26 12:02:26;;;;;;;26.80;14.13;;;;;;;;;;5069855;28;20052;-82
2022/03/26 12:04:56;;;;;;;27.10;12.50;;;;;;;;;;5064368;28;20493;-85
2022/03/26 12:07:27;;;;;;;33.80;14.82;;;;;;;;;;5067002;28;20137;-80
2022/03/26 12:10:18;;;;;;;30.15;14.00;;;;;;;;;;5072874;28;20041;-78
2022/03/26 12:13:10;;;;;;;26.63;14.77;;;;;;;;;;5060591;28;20115;-77
2022/03/26 12:15:36;;;;;;;;;;;;;;;;;;5064873;28;20045;-77
2022/03/26 12:18:16;;;;;;;29.92;14.55;;;;;;;;;;5072132;28;20369;-77
2022/03/26 12:20:44;;;;;;;26.40;12.82;;;;;;;;;;5065756;28;20053;-77
2022/03/26 12:23:23;;;;;;;26.00;12.05;;;;;;;;;;5071208;28;20094;-78
2022/03/26 12:26:08;;;;;;;34.13;15.52;;;;;;;;;;5061748;28;20535;-78
2022/03/26 12:28:36;;;;;;;25.48;14.20;;;;;;;;;;5069898;28;20041;-78
2022/03/26 12:31:04;;;;;;;27.65;13.07;;;;;;;;;;5067874;28;20094;-77
2022/03/26 12:33:40;;;;;;;23.65;12.90;;;;;;;;;;5068691;28;20068;-78
2022/03/26 12:36:06;;;;;;;30.48;14.57;;;;;;;;;;5071818;28;20048;-78
2022/03/26 12:38:32;;;;;;;31.13;14.05;;;;;;;;;;5072345;28;20037;-79
2022/03/26 12:41:00;;;;;;;29.73;14.55;;;;;;;;;;5075674;28;20037;-78
2022/03/26 12:43:27;;;;;;;32.78;15.77;;;;;;;;;;5065986;28;20055;-78
2022/03/26 12:45:53;;;;;;;34.53;15.45;;;;;;;;;;5069112;28;20044;-79
2022/03/26 12:48:23;;;;;;;27.02;14.20;;;;;;;;;;5067009;28;20072;-79
2022/03/26 12:50:49;;;;;;;33.50;14.60;;;;;;;;;;5067976;28;20045;-78
2022/03/26 12:53:17;;;;;;;31.77;14.30;;;;;;;;;;5068047;28;20045;-78
2022/03/26 12:55:44;;;;;;;32.05;15.20;;;;;;;;;;5073050;28;20041;-78
2022/03/26 13:01:00;;;;;;;28.40;15.00;;;;;;;;;;5068141;28;20867;-78
2022/03/26 13:03:28;;;;;;;27.35;12.18;;;;;;;;;;5069377;28;20087;-76
2022/03/26 13:05:54;;;;;;;28.13;14.35;;;;;;;;;;5068163;27;20045;-76
2022/03/26 13:08:20;;;;;;;31.85;13.13;;;;;;;;;;5068075;28;20573;-77
2022/03/26 13:10:46;;;;;;;25.00;13.02;;;;;;;;;;5066138;28;20068;-77
2022/03/26 13:13:12;;;;;;;30.80;14.40;;;;;;;;;;5072552;28;20820;-75
2022/03/26 13:15:39;;;;;;;30.50;14.48;;;;;;;;;;5070781;28;20110;-75
2022/03/26 13:18:09;;;;;;;29.13;14.07;;;;;;;;;;5068386;28;20434;-75
2022/03/26 13:20:39;;;;;;;32.63;14.60;;;;;;;;;;5067979;28;20048;-76
2022/03/26 13:23:08;;;;;;;30.13;16.08;;;;;;;;;;5073350;28;20040;-73
2022/03/26 13:25:35;;;;;;;23.88;12.13;;;;;;;;;;5092645;27;20044;-78
2022/03/26 13:28:18;;;;;;;24.02;11.43;;;;;;;;;;5054319;28;20051;-76
2022/03/26 13:30:45;;;;;;;24.13;11.98;;;;;;;;;;5069071;27;20096;-77
2022/03/26 13:33:23;;;;;;;26.80;13.07;;;;;;;;;;5074839;27;20055;-78
2022/03/26 13:35:53;;;;;;;28.10;14.00;;;;;;;;;;5099737;27;20050;-78
2022/03/26 13:38:26;;;;;;;33.25;14.75;;;;;;;;;;5069872;28;20025;-77
2022/03/26 13:40:52;;;;;;;28.30;14.90;;;;;;;;;;5078201;28;20060;-77
2022/03/26 13:43:18;;;;;;;30.83;13.93;;;;;;;;;;5070287;28;20047;-77
2022/03/26 13:45:45;;;;;;;28.60;14.63;;;;;;;;;;5088843;27;20093;-77
2022/03/26 13:48:12;;;;;;;29.15;13.60;;;;;;;;;;5067960;28;20094;-81
2022/03/26 13:50:39;;;;;;;26.83;14.10;;;;;;;;;;5091289;27;20561;-78
2022/03/26 13:53:16;;;;;;;27.88;13.80;;;;;;;;;;5095818;27;20051;-77
2022/03/26 13:55:46;;;;;;;27.70;13.30;;;;;;;;;;5074006;28;20036;-77
2022/03/26 13:58:18;;;;;;;29.65;14.27;;;;;;;;;;5090131;27;20120;-77
2022/03/26 14:00:44;;;;;;;26.85;13.02;;;;;;;;;;5090435;27;20044;-77
2022/03/26 14:03:10;;;;;;;26.52;12.77;;;;;;;;;;5072804;27;20047;-78
2022/03/26 14:05:36;;;;;;;26.17;12.30;;;;;;;;;;5073297;28;20035;-81
2022/03/26 14:08:04;;;;;;;26.10;13.20;;;;;;;;;;5067816;28;20040;-78
2022/03/26 14:10:31;;;;;;;24.98;12.32;;;;;;;;;;5066582;27;20055;-78
2022/03/26 14:12:59;;;;;;;28.08;12.73;;;;;;;;;;5070549;28;20097;-77
2022/03/26 14:15:25;;;;;;;25.63;13.05;;;;;;;;;;5072800;28;20106;-78
2022/03/26 14:17:51;;;;;;;27.30;11.93;;;;;;;;;;5075792;27;20040;-79
2022/03/26 14:20:18;;;;;;;30.45;12.80;;;;;;;;;;5073771;28;20117;-79
2022/03/26 14:22:44;;;;;;;28.33;14.73;;;;;;;;;;5088103;27;20042;-80
2022/03/26 14:25:10;;;;;;;30.05;13.60;;;;;;;;;;5073300;28;20044;-81
2022/03/26 14:27:36;;;;;;;25.40;11.68;;;;;;;;;;5078961;27;20878;-82
2022/03/26 14:30:05;;;;;;;29.50;13.32;;;;;;;;;;5070912;27;20074;-83
2022/03/26 14:32:31;;;;;;;27.95;13.82;;;;;;;;;;5075704;27;20036;-81